Island Pilot — WDF6368 — position and weather

sailwx.info

Track history (hours):
 
Tides and Currents Weather Stations Pressure Air Temp Water Temp Dewpoint Dewpoint Depression Visibility Wind Speed Wind Dir Waves Ship Positions

Island Pilot

Owner: Island Pilot, Yonges Island, SC. More information available from US FCC via Universal Licensing System and Coast Guard Vessel Documentation Center.

Last reported at 2017-Oct-20 09:10 UTC. Time now 2017-Oct-20 14:14 UTC.
Position N 37°58' W 076°12'.

Length 20 m; draft 3 m.

Type: Towing. MMSI: 367473520.

Date/timePositionNaut miles runAvg speedWind from/ knotsBaromVisibWave heightAir tempDewpointWater temp
2017-Oct-20 09:10N 37°58' W 076°12'3 6.6
2017-Oct-20 08:42N 38°01' W 076°14'1 6.5
2017-Oct-20 08:29N 38°02' W 076°14'3 6.5
2017-Oct-20 08:00N 38°05' W 076°15'3 6.3
2017-Oct-20 07:30N 38°08' W 076°16'3 6.1
2017-Oct-20 07:00N 38°11' W 076°17'3 6.1
2017-Oct-20 06:30N 38°14' W 076°18'3 6.1
2017-Oct-20 05:58N 38°17' W 076°20'3 6.2
2017-Oct-20 05:24N 38°21' W 076°21'3 6.4
2017-Oct-20 05:00N 38°23' W 076°22'3 6.5
2017-Oct-20 04:30N 38°26' W 076°23'3 6.7
2017-Oct-20 04:00N 38°29' W 076°25'3 6.7
2017-Oct-20 03:30N 38°32' W 076°26'3 6.7
2017-Oct-20 03:00N 38°36' W 076°27'3 6.6
2017-Oct-20 02:30N 38°39' W 076°28'3 6.4
2017-Oct-20 02:00N 38°42' W 076°28'3 6.5
2017-Oct-20 01:30N 38°45' W 076°28'4 6.4
2017-Oct-20 00:56N 38°49' W 076°27'3 6.2
2017-Oct-20 00:31N 38°51' W 076°26'3 6.0
2017-Oct-20 00:01N 38°54' W 076°25'3 5.7
2017-Oct-19 23:30N 38°57' W 076°24'3 5.4
2017-Oct-19 23:01N 38°60' W 076°23'3 5.2
2017-Oct-19 22:30N 39°02' W 076°23'3 5.4
2017-Oct-19 22:00N 39°05' W 076°24'3 5.4
2017-Oct-19 21:31N 39°08' W 076°24'3 5.6
2017-Oct-19 21:01N 39°10' W 076°26'3 5.6
2017-Oct-19 20:30N 39°11' W 076°29'3 5.9
2017-Oct-19 20:00N 39°13' W 076°32'2 4.7
2017-Oct-19 19:31N 39°12' W 076°35'0 0.4
2017-Oct-19 19:01N 39°12' W 076°35'0 0.0
2017-Oct-19 18:31N 39°12' W 076°35'0 0.0
2017-Oct-19 18:00N 39°12' W 076°35'0 0.0
2017-Oct-19 17:31N 39°12' W 076°35'0 0.0
2017-Oct-19 17:00N 39°12' W 076°35'0 0.0
2017-Oct-19 16:30N 39°12' W 076°35'0 0.0
2017-Oct-19 16:01N 39°12' W 076°35'0 0.0
2017-Oct-19 15:30N 39°12' W 076°35'1 2.7
2017-Oct-19 15:00N 39°14' W 076°34'0 0.0
2017-Oct-19 14:31N 39°14' W 076°34'0 0.0
2017-Oct-19 14:01N 39°14' W 076°34'1 1.6
2017-Oct-19 13:31N 39°13' W 076°35'1 1.2
2017-Oct-19 13:01N 39°12' W 076°35'0 0.0
2017-Oct-19 12:31N 39°12' W 076°35'0 0.0
2017-Oct-19 12:00N 39°12' W 076°35'0 0.2
2017-Oct-19 11:31N 39°12' W 076°35'0 0.0
2017-Oct-19 11:00N 39°12' W 076°35'0 0.0
2017-Oct-19 10:30N 39°12' W 076°35'0 0.0
2017-Oct-19 10:01N 39°12' W 076°35'0 0.0
2017-Oct-19 09:31N 39°12' W 076°35'0 0.0
2017-Oct-19 09:00N 39°12' W 076°35'0 0.0
2017-Oct-19 08:30N 39°12' W 076°35'0 0.0
2017-Oct-19 08:00N 39°12' W 076°35'0 0.0
2017-Oct-19 07:30N 39°12' W 076°35'0 0.0
2017-Oct-19 07:00N 39°12' W 076°35'0 0.0
2017-Oct-19 06:30N 39°12' W 076°35'0 0.0
2017-Oct-19 06:01N 39°12' W 076°35'0 0.0
2017-Oct-19 05:31N 39°12' W 076°35'0 0.0
2017-Oct-19 05:00N 39°12' W 076°35'0 0.0
2017-Oct-19 04:30N 39°12' W 076°35'0 0.0
2017-Oct-19 04:00N 39°12' W 076°35'0 0.0
2017-Oct-19 03:30N 39°12' W 076°35'0 0.0
2017-Oct-19 03:00N 39°12' W 076°35'0 0.0
2017-Oct-19 02:30N 39°12' W 076°35'0 0.0
2017-Oct-19 02:00N 39°12' W 076°35'0 0.0
2017-Oct-19 01:30N 39°12' W 076°35'0 0.0
2017-Oct-19 01:00N 39°12' W 076°35'0 0.0
2017-Oct-19 00:30N 39°12' W 076°35'0 0.0
2017-Oct-19 00:00N 39°12' W 076°35'0 0.0
2017-Oct-18 23:30N 39°12' W 076°35'0 0.0
2017-Oct-18 23:00N 39°12' W 076°35'0 0.0
2017-Oct-18 22:30N 39°12' W 076°35'0 0.0
2017-Oct-18 22:00N 39°12' W 076°35'0 0.0
2017-Oct-18 21:31N 39°12' W 076°35'0 0.0
2017-Oct-18 21:01N 39°12' W 076°35'0 0.1
2017-Oct-18 20:30N 39°12' W 076°35'2 4.7
2017-Oct-18 20:01N 39°13' W 076°32'4 7.1
2017-Oct-18 19:30N 39°11' W 076°28'4 7.1
2017-Oct-18 18:58N 39°09' W 076°25'3 6.9
2017-Oct-18 18:30N 39°06' W 076°24'3 6.9
2017-Oct-18 18:00N 39°02' W 076°23'3 6.8
2017-Oct-18 17:31N 38°59' W 076°23'3 6.8
2017-Oct-18 17:01N 38°56' W 076°25'3 6.6
2017-Oct-18 16:31N 38°52' W 076°26'11 6.4
2017-Oct-18 14:49N 38°42' W 076°28'5 6.1
2017-Oct-18 14:00N 38°37' W 076°27'4 5.8
2017-Oct-18 13:23N 38°33' W 076°27'2 5.8
2017-Oct-18 12:59N 38°31' W 076°26'3 6.0
2017-Oct-18 12:29N 38°28' W 076°24'3 6.0
2017-Oct-18 12:00N 38°26' W 076°23'3 5.9
2017-Oct-18 11:30N 38°23' W 076°21'10 6.1
2017-Oct-18 09:47N 38°13' W 076°17'7 6.5
2017-Oct-18 08:44N 38°06' W 076°15'73 6.8
2017-Oct-17 22:03N 36°54' W 076°20'6 6.0
2017-Oct-17 21:02N 36°48' W 076°18'1 0.9
2017-Oct-17 19:47N 36°47' W 076°18'0 0.5
2017-Oct-17 19:31N 36°47' W 076°18'0 0.0
2017-Oct-17 18:36N 36°47' W 076°18'0 0.0
2017-Oct-17 18:23N 36°47' W 076°18'0 0.0
2017-Oct-17 17:48N 36°47' W 076°18'0 0.0
2017-Oct-17 17:19N 36°47' W 076°18'0 0.0
2017-Oct-17 16:04N 36°47' W 076°18'0 0.0
2017-Oct-17 15:53N 36°47' W 076°18'0 0.0
2017-Oct-17 15:18N 36°47' W 076°18'0 0.0
2017-Oct-17 15:00N 36°47' W 076°18'0 0.0
2017-Oct-17 14:30N 36°47' W 076°18'0 0.0
2017-Oct-17 13:18N 36°47' W 076°18'0 0.0
2017-Oct-17 12:57N 36°47' W 076°18'0 0.0
2017-Oct-17 12:30N 36°47' W 076°18'0 0.0
2017-Oct-17 12:00N 36°47' W 076°18'0 0.0
2017-Oct-17 10:42N 36°47' W 076°18'0 0.0
2017-Oct-17 10:20N 36°47' W 076°18'0 0.0
2017-Oct-17 09:52N 36°47' W 076°18'0 0.0
2017-Oct-17 09:24N 36°47' W 076°18'0 0.0
2017-Oct-17 08:44N 36°47' W 076°18'0 0.0
2017-Oct-17 08:21N 36°47' W 076°18'0 0.0
2017-Oct-17 08:01N 36°47' W 076°18'0 0.0
2017-Oct-17 07:30N 36°47' W 076°18'0 0.0
2017-Oct-17 07:01N 36°47' W 076°18'0 0.0
2017-Oct-17 06:30N 36°47' W 076°18'0 0.0
2017-Oct-17 06:01N 36°47' W 076°18'0 0.0
2017-Oct-17 05:30N 36°47' W 076°18'0 0.0
2017-Oct-17 05:00N 36°47' W 076°18'0 0.0
2017-Oct-17 04:30N 36°47' W 076°18'0 0.0
2017-Oct-17 04:00N 36°47' W 076°18'0 0.0
2017-Oct-17 03:30N 36°47' W 076°18'0 0.0
2017-Oct-17 03:00N 36°47' W 076°18'0 0.0
2017-Oct-17 02:30N 36°47' W 076°18'0 0.0
2017-Oct-17 02:00N 36°47' W 076°18'0 0.0
2017-Oct-17 01:30N 36°47' W 076°18'0 0.0
2017-Oct-17 01:00N 36°47' W 076°18'0 0.0
2017-Oct-17 00:30N 36°47' W 076°18'0 0.0
2017-Oct-17 00:00N 36°47' W 076°18'0 0.0
2017-Oct-16 23:30N 36°47' W 076°18'0 0.0
2017-Oct-16 23:01N 36°47' W 076°18'0 0.0
2017-Oct-16 22:31N 36°47' W 076°18'0 0.0
2017-Oct-16 22:00N 36°47' W 076°18'0 0.0
2017-Oct-16 21:30N 36°47' W 076°18'0 0.0
2017-Oct-16 21:00N 36°47' W 076°18'0 0.0
2017-Oct-16 20:30N 36°47' W 076°18'0 0.0
2017-Oct-16 20:00N 36°47' W 076°18'0 0.0
2017-Oct-16 19:30N 36°47' W 076°18'0 0.0
2017-Oct-16 19:00N 36°47' W 076°18'0 0.0
2017-Oct-16 18:30N 36°47' W 076°18'0 0.0
2017-Oct-16 18:00N 36°47' W 076°18'0 0.0
2017-Oct-16 17:31N 36°47' W 076°18'0 0.0
2017-Oct-16 17:00N 36°47' W 076°18'0 0.0
2017-Oct-16 16:31N 36°47' W 076°18'0 0.0
2017-Oct-16 16:01N 36°47' W 076°18'0 0.0
2017-Oct-16 15:30N 36°47' W 076°18'0 0.0
2017-Oct-16 15:00N 36°47' W 076°18'0 0.0
2017-Oct-16 14:00N 36°47' W 076°18'0 0.0
2017-Oct-16 13:31N 36°47' W 076°18'0 0.0
2017-Oct-16 13:00N 36°47' W 076°18'0 0.0
2017-Oct-16 12:31N 36°47' W 076°18'0 0.0
2017-Oct-16 12:00N 36°47' W 076°18'0 0.0
2017-Oct-16 11:31N 36°47' W 076°18'0 0.0
2017-Oct-16 11:00N 36°47' W 076°18'0 0.0
2017-Oct-16 10:30N 36°47' W 076°18'0 0.0
2017-Oct-16 10:01N 36°47' W 076°18'0 0.0
2017-Oct-16 09:30N 36°47' W 076°18'0 0.0
2017-Oct-16 09:00N 36°47' W 076°18'0 0.0
2017-Oct-16 08:30N 36°47' W 076°18'0 0.0
2017-Oct-16 08:00N 36°47' W 076°18'0 0.0
2017-Oct-16 07:31N 36°47' W 076°18'0 0.0
2017-Oct-16 07:01N 36°47' W 076°18'0 0.0
2017-Oct-16 06:30N 36°47' W 076°18'0 0.0
2017-Oct-16 06:01N 36°47' W 076°18'0 0.0
2017-Oct-16 05:30N 36°47' W 076°18'0 0.0
2017-Oct-16 05:00N 36°47' W 076°18'0 0.0
2017-Oct-16 04:30N 36°47' W 076°18'0 0.0
2017-Oct-16 04:00N 36°47' W 076°18'0 0.0
2017-Oct-16 03:31N 36°47' W 076°18'0 0.0
2017-Oct-16 03:00N 36°47' W 076°18'0 0.0
2017-Oct-16 02:30N 36°47' W 076°18'0 0.0
2017-Oct-16 02:01N 36°47' W 076°18'0 0.0
2017-Oct-16 01:31N 36°47' W 076°18'0 0.0
2017-Oct-16 01:00N 36°47' W 076°18'0 0.0
2017-Oct-16 00:31N 36°47' W 076°18'0 0.0
2017-Oct-16 00:01N 36°47' W 076°18'0 0.0
2017-Oct-15 23:31N 36°47' W 076°18'0 0.0
2017-Oct-15 23:01N 36°47' W 076°18'0 0.0
2017-Oct-15 22:31N 36°47' W 076°18'0 0.0
2017-Oct-15 22:00N 36°47' W 076°18'0 0.0
2017-Oct-15 21:30N 36°47' W 076°18'0 0.0
2017-Oct-15 21:01N 36°47' W 076°18'0 0.0
2017-Oct-15 20:31N 36°47' W 076°18'0 0.0
2017-Oct-15 20:01N 36°47' W 076°18'0 0.0
2017-Oct-15 19:31N 36°47' W 076°18'0 0.0
2017-Oct-15 15:47N 36°47' W 076°18'0 0.0
2017-Oct-15 15:31N 36°47' W 076°18'1 1.3
2017-Oct-15 15:00N 36°46' W 076°18'4 3.7
2017-Oct-15 14:00N 36°43' W 076°15'  
Track history (hours):
 
Tides and Currents Weather Stations Pressure Air Temp Water Temp Dewpoint Dewpoint Depression Visibility Wind Speed Wind Dir Waves Ship Positions

Island Pilot

Owner: Island Pilot, Yonges Island, SC. More information available from US FCC via Universal Licensing System and Coast Guard Vessel Documentation Center.

Last reported at 2017-Oct-20 09:10 UTC. Time now 2017-Oct-20 14:14 UTC.
Position N 37°58' W 076°12'.

Length 20 m; draft 3 m.

Type: Towing. MMSI: 367473520.

Date/timePositionNaut miles runAvg speedWind from/ knotsBaromVisibWave heightAir tempDewpointWater temp
2017-Oct-20 09:10N 37°58' W 076°12'3 6.6
2017-Oct-20 08:42N 38°01' W 076°14'1 6.5
2017-Oct-20 08:29N 38°02' W 076°14'3 6.5
2017-Oct-20 08:00N 38°05' W 076°15'3 6.3
2017-Oct-20 07:30N 38°08' W 076°16'3 6.1
2017-Oct-20 07:00N 38°11' W 076°17'3 6.1
2017-Oct-20 06:30N 38°14' W 076°18'3 6.1
2017-Oct-20 05:58N 38°17' W 076°20'3 6.2
2017-Oct-20 05:24N 38°21' W 076°21'3 6.4
2017-Oct-20 05:00N 38°23' W 076°22'3 6.5
2017-Oct-20 04:30N 38°26' W 076°23'3 6.7
2017-Oct-20 04:00N 38°29' W 076°25'3 6.7
2017-Oct-20 03:30N 38°32' W 076°26'3 6.7
2017-Oct-20 03:00N 38°36' W 076°27'3 6.6
2017-Oct-20 02:30N 38°39' W 076°28'3 6.4
2017-Oct-20 02:00N 38°42' W 076°28'3 6.5
2017-Oct-20 01:30N 38°45' W 076°28'4 6.4
2017-Oct-20 00:56N 38°49' W 076°27'3 6.2
2017-Oct-20 00:31N 38°51' W 076°26'3 6.0
2017-Oct-20 00:01N 38°54' W 076°25'3 5.7
2017-Oct-19 23:30N 38°57' W 076°24'3 5.4
2017-Oct-19 23:01N 38°60' W 076°23'3 5.2
2017-Oct-19 22:30N 39°02' W 076°23'3 5.4
2017-Oct-19 22:00N 39°05' W 076°24'3 5.4
2017-Oct-19 21:31N 39°08' W 076°24'3 5.6
2017-Oct-19 21:01N 39°10' W 076°26'3 5.6
2017-Oct-19 20:30N 39°11' W 076°29'3 5.9
2017-Oct-19 20:00N 39°13' W 076°32'2 4.7
2017-Oct-19 19:31N 39°12' W 076°35'0 0.4
2017-Oct-19 19:01N 39°12' W 076°35'0 0.0
2017-Oct-19 18:31N 39°12' W 076°35'0 0.0
2017-Oct-19 18:00N 39°12' W 076°35'0 0.0
2017-Oct-19 17:31N 39°12' W 076°35'0 0.0
2017-Oct-19 17:00N 39°12' W 076°35'0 0.0
2017-Oct-19 16:30N 39°12' W 076°35'0 0.0
2017-Oct-19 16:01N 39°12' W 076°35'0 0.0
2017-Oct-19 15:30N 39°12' W 076°35'1 2.7
2017-Oct-19 15:00N 39°14' W 076°34'0 0.0
2017-Oct-19 14:31N 39°14' W 076°34'0 0.0
2017-Oct-19 14:01N 39°14' W 076°34'1 1.6
2017-Oct-19 13:31N 39°13' W 076°35'1 1.2
2017-Oct-19 13:01N 39°12' W 076°35'0 0.0
2017-Oct-19 12:31N 39°12' W 076°35'0 0.0
2017-Oct-19 12:00N 39°12' W 076°35'0 0.2
2017-Oct-19 11:31N 39°12' W 076°35'0 0.0
2017-Oct-19 11:00N 39°12' W 076°35'0 0.0
2017-Oct-19 10:30N 39°12' W 076°35'0 0.0
2017-Oct-19 10:01N 39°12' W 076°35'0 0.0
2017-Oct-19 09:31N 39°12' W 076°35'0 0.0
2017-Oct-19 09:00N 39°12' W 076°35'0 0.0
2017-Oct-19 08:30N 39°12' W 076°35'0 0.0
2017-Oct-19 08:00N 39°12' W 076°35'0 0.0
2017-Oct-19 07:30N 39°12' W 076°35'0 0.0
2017-Oct-19 07:00N 39°12' W 076°35'0 0.0
2017-Oct-19 06:30N 39°12' W 076°35'0 0.0
2017-Oct-19 06:01N 39°12' W 076°35'0 0.0
2017-Oct-19 05:31N 39°12' W 076°35'0 0.0
2017-Oct-19 05:00N 39°12' W 076°35'0 0.0
2017-Oct-19 04:30N 39°12' W 076°35'0 0.0
2017-Oct-19 04:00N 39°12' W 076°35'0 0.0
2017-Oct-19 03:30N 39°12' W 076°35'0 0.0
2017-Oct-19 03:00N 39°12' W 076°35'0 0.0
2017-Oct-19 02:30N 39°12' W 076°35'0 0.0
2017-Oct-19 02:00N 39°12' W 076°35'0 0.0
2017-Oct-19 01:30N 39°12' W 076°35'0 0.0
2017-Oct-19 01:00N 39°12' W 076°35'0 0.0
2017-Oct-19 00:30N 39°12' W 076°35'0 0.0
2017-Oct-19 00:00N 39°12' W 076°35'0 0.0
2017-Oct-18 23:30N 39°12' W 076°35'0 0.0
2017-Oct-18 23:00N 39°12' W 076°35'0 0.0
2017-Oct-18 22:30N 39°12' W 076°35'0 0.0
2017-Oct-18 22:00N 39°12' W 076°35'0 0.0
2017-Oct-18 21:31N 39°12' W 076°35'0 0.0
2017-Oct-18 21:01N 39°12' W 076°35'0 0.1
2017-Oct-18 20:30N 39°12' W 076°35'2 4.7
2017-Oct-18 20:01N 39°13' W 076°32'4 7.1
2017-Oct-18 19:30N 39°11' W 076°28'4 7.1
2017-Oct-18 18:58N 39°09' W 076°25'3 6.9
2017-Oct-18 18:30N 39°06' W 076°24'3 6.9
2017-Oct-18 18:00N 39°02' W 076°23'3 6.8
2017-Oct-18 17:31N 38°59' W 076°23'3 6.8
2017-Oct-18 17:01N 38°56' W 076°25'3 6.6
2017-Oct-18 16:31N 38°52' W 076°26'11 6.4
2017-Oct-18 14:49N 38°42' W 076°28'5 6.1
2017-Oct-18 14:00N 38°37' W 076°27'4 5.8
2017-Oct-18 13:23N 38°33' W 076°27'2 5.8
2017-Oct-18 12:59N 38°31' W 076°26'3 6.0
2017-Oct-18 12:29N 38°28' W 076°24'3 6.0
2017-Oct-18 12:00N 38°26' W 076°23'3 5.9
2017-Oct-18 11:30N 38°23' W 076°21'10 6.1
2017-Oct-18 09:47N 38°13' W 076°17'7 6.5
2017-Oct-18 08:44N 38°06' W 076°15'73 6.8
2017-Oct-17 22:03N 36°54' W 076°20'6 6.0
2017-Oct-17 21:02N 36°48' W 076°18'1 0.9
2017-Oct-17 19:47N 36°47' W 076°18'0 0.5
2017-Oct-17 19:31N 36°47' W 076°18'0 0.0
2017-Oct-17 18:36N 36°47' W 076°18'0 0.0
2017-Oct-17 18:23N 36°47' W 076°18'0 0.0
2017-Oct-17 17:48N 36°47' W 076°18'0 0.0
2017-Oct-17 17:19N 36°47' W 076°18'0 0.0
2017-Oct-17 16:04N 36°47' W 076°18'0 0.0
2017-Oct-17 15:53N 36°47' W 076°18'0 0.0
2017-Oct-17 15:18N 36°47' W 076°18'0 0.0
2017-Oct-17 15:00N 36°47' W 076°18'0 0.0
2017-Oct-17 14:30N 36°47' W 076°18'0 0.0
2017-Oct-17 13:18N 36°47' W 076°18'0 0.0
2017-Oct-17 12:57N 36°47' W 076°18'0 0.0
2017-Oct-17 12:30N 36°47' W 076°18'0 0.0
2017-Oct-17 12:00N 36°47' W 076°18'0 0.0
2017-Oct-17 10:42N 36°47' W 076°18'0 0.0
2017-Oct-17 10:20N 36°47' W 076°18'0 0.0
2017-Oct-17 09:52N 36°47' W 076°18'0 0.0
2017-Oct-17 09:24N 36°47' W 076°18'0 0.0
2017-Oct-17 08:44N 36°47' W 076°18'0 0.0
2017-Oct-17 08:21N 36°47' W 076°18'0 0.0
2017-Oct-17 08:01N 36°47' W 076°18'0 0.0
2017-Oct-17 07:30N 36°47' W 076°18'0 0.0
2017-Oct-17 07:01N 36°47' W 076°18'0 0.0
2017-Oct-17 06:30N 36°47' W 076°18'0 0.0
2017-Oct-17 06:01N 36°47' W 076°18'0 0.0
2017-Oct-17 05:30N 36°47' W 076°18'0 0.0
2017-Oct-17 05:00N 36°47' W 076°18'0 0.0
2017-Oct-17 04:30N 36°47' W 076°18'0 0.0
2017-Oct-17 04:00N 36°47' W 076°18'0 0.0
2017-Oct-17 03:30N 36°47' W 076°18'0 0.0
2017-Oct-17 03:00N 36°47' W 076°18'0 0.0
2017-Oct-17 02:30N 36°47' W 076°18'0 0.0
2017-Oct-17 02:00N 36°47' W 076°18'0 0.0
2017-Oct-17 01:30N 36°47' W 076°18'0 0.0
2017-Oct-17 01:00N 36°47' W 076°18'0 0.0
2017-Oct-17 00:30N 36°47' W 076°18'0 0.0
2017-Oct-17 00:00N 36°47' W 076°18'0 0.0
2017-Oct-16 23:30N 36°47' W 076°18'0 0.0
2017-Oct-16 23:01N 36°47' W 076°18'0 0.0
2017-Oct-16 22:31N 36°47' W 076°18'0 0.0
2017-Oct-16 22:00N 36°47' W 076°18'0 0.0
2017-Oct-16 21:30N 36°47' W 076°18'0 0.0
2017-Oct-16 21:00N 36°47' W 076°18'0 0.0
2017-Oct-16 20:30N 36°47' W 076°18'0 0.0
2017-Oct-16 20:00N 36°47' W 076°18'0 0.0
2017-Oct-16 19:30N 36°47' W 076°18'0 0.0
2017-Oct-16 19:00N 36°47' W 076°18'0 0.0
2017-Oct-16 18:30N 36°47' W 076°18'0 0.0
2017-Oct-16 18:00N 36°47' W 076°18'0 0.0
2017-Oct-16 17:31N 36°47' W 076°18'0 0.0
2017-Oct-16 17:00N 36°47' W 076°18'0 0.0
2017-Oct-16 16:31N 36°47' W 076°18'0 0.0
2017-Oct-16 16:01N 36°47' W 076°18'0 0.0
2017-Oct-16 15:30N 36°47' W 076°18'0 0.0
2017-Oct-16 15:00N 36°47' W 076°18'0 0.0
2017-Oct-16 14:00N 36°47' W 076°18'0 0.0
2017-Oct-16 13:31N 36°47' W 076°18'0 0.0
2017-Oct-16 13:00N 36°47' W 076°18'0 0.0
2017-Oct-16 12:31N 36°47' W 076°18'0 0.0
2017-Oct-16 12:00N 36°47' W 076°18'0 0.0
2017-Oct-16 11:31N 36°47' W 076°18'0 0.0
2017-Oct-16 11:00N 36°47' W 076°18'0 0.0
2017-Oct-16 10:30N 36°47' W 076°18'0 0.0
2017-Oct-16 10:01N 36°47' W 076°18'0 0.0
2017-Oct-16 09:30N 36°47' W 076°18'0 0.0
2017-Oct-16 09:00N 36°47' W 076°18'0 0.0
2017-Oct-16 08:30N 36°47' W 076°18'0 0.0
2017-Oct-16 08:00N 36°47' W 076°18'0 0.0
2017-Oct-16 07:31N 36°47' W 076°18'0 0.0
2017-Oct-16 07:01N 36°47' W 076°18'0 0.0
2017-Oct-16 06:30N 36°47' W 076°18'0 0.0
2017-Oct-16 06:01N 36°47' W 076°18'0 0.0
2017-Oct-16 05:30N 36°47' W 076°18'0 0.0
2017-Oct-16 05:00N 36°47' W 076°18'0 0.0
2017-Oct-16 04:30N 36°47' W 076°18'0 0.0
2017-Oct-16 04:00N 36°47' W 076°18'0 0.0
2017-Oct-16 03:31N 36°47' W 076°18'0 0.0
2017-Oct-16 03:00N 36°47' W 076°18'0 0.0
2017-Oct-16 02:30N 36°47' W 076°18'0 0.0
2017-Oct-16 02:01N 36°47' W 076°18'0 0.0
2017-Oct-16 01:31N 36°47' W 076°18'0 0.0
2017-Oct-16 01:00N 36°47' W 076°18'0 0.0
2017-Oct-16 00:31N 36°47' W 076°18'0 0.0
2017-Oct-16 00:01N 36°47' W 076°18'0 0.0
2017-Oct-15 23:31N 36°47' W 076°18'0 0.0
2017-Oct-15 23:01N 36°47' W 076°18'0 0.0
2017-Oct-15 22:31N 36°47' W 076°18'0 0.0
2017-Oct-15 22:00N 36°47' W 076°18'0 0.0
2017-Oct-15 21:30N 36°47' W 076°18'0 0.0
2017-Oct-15 21:01N 36°47' W 076°18'0 0.0
2017-Oct-15 20:31N 36°47' W 076°18'0 0.0
2017-Oct-15 20:01N 36°47' W 076°18'0 0.0
2017-Oct-15 19:31N 36°47' W 076°18'0 0.0
2017-Oct-15 15:47N 36°47' W 076°18'0 0.0
2017-Oct-15 15:31N 36°47' W 076°18'1 1.3
2017-Oct-15 15:00N 36°46' W 076°18'4 3.7
2017-Oct-15 14:00N 36°43' W 076°15'  

Dump ship's entire track history